createdAt,value
2023-01-11T00:01:03.830Z,7.65
2023-01-11T00:03:31.945Z,9.20
2023-01-11T00:05:59.858Z,6.90
2023-01-11T00:08:28.595Z,8.68
2023-01-11T00:10:56.088Z,6.40
2023-01-11T00:13:23.507Z,6.63
2023-01-11T00:15:52.137Z,7.33
2023-01-11T00:18:19.532Z,9.65
2023-01-11T00:20:46.804Z,7.38
2023-01-11T00:23:14.070Z,7.72
2023-01-11T00:25:41.473Z,8.73
2023-01-11T00:28:09.491Z,7.30
2023-01-11T00:30:37.173Z,6.43
2023-01-11T00:33:05.781Z,6.00
2023-01-11T00:35:33.100Z,8.23
2023-01-11T00:38:00.392Z,8.07
2023-01-11T00:40:27.905Z,7.50
2023-01-11T00:43:14.015Z,5.53
2023-01-11T00:46:01.655Z,7.38
2023-01-11T00:48:30.266Z,9.85
2023-01-11T00:50:57.741Z,6.78
2023-01-11T00:53:25.023Z,10.80
2023-01-11T00:55:52.274Z,5.40
2023-01-11T00:58:19.515Z,6.63
2023-01-11T01:00:46.821Z,8.30
2023-01-11T01:03:14.072Z,6.75
2023-01-11T01:05:42.725Z,9.17
2023-01-11T01:08:09.960Z,6.95
2023-01-11T01:10:37.263Z,7.20
2023-01-11T01:13:22.932Z,6.00
2023-01-11T01:15:56.717Z,8.65
2023-01-11T01:18:24.118Z,6.63
2023-01-11T01:20:52.689Z,9.13
2023-01-11T01:23:19.951Z,7.53
2023-01-11T01:25:47.195Z,8.45
2023-01-11T01:28:14.450Z,14.98
2023-01-11T01:30:41.729Z,8.33
2023-01-11T01:33:08.964Z,6.50
2023-01-11T01:35:37.788Z,8.57
2023-01-11T01:38:06.356Z,7.72
2023-01-11T01:40:33.635Z,11.45
2023-01-11T01:43:00.883Z,9.00
2023-01-11T01:45:28.897Z,5.43
2023-01-11T01:47:59.046Z,5.85
2023-01-11T01:50:29.400Z,6.78
2023-01-11T01:53:01.126Z,7.32
2023-01-11T01:55:33.739Z,7.10
2023-01-11T01:58:02.684Z,7.10
2023-01-11T02:00:30.289Z,7.72
2023-01-11T02:03:00.652Z,9.50
2023-01-11T02:05:28.263Z,6.18
2023-01-11T02:07:58.778Z,4.70
2023-01-11T02:10:28.110Z,5.40
2023-01-11T02:13:00.559Z,7.95
2023-01-11T02:15:28.962Z,6.20
2023-01-11T02:17:56.207Z,8.25
2023-01-11T02:20:34.859Z,6.80
2023-01-11T02:23:40.129Z,7.28
2023-01-11T02:26:47.222Z,4.60
2023-01-11T02:29:28.338Z,5.22
2023-01-11T02:32:08.053Z,7.20
2023-01-11T02:34:42.199Z,10.07
2023-01-11T02:37:22.492Z,7.28
2023-01-11T02:39:59.970Z,7.40
2023-01-11T02:42:55.462Z,4.18
2023-01-11T02:45:37.841Z,4.03
2023-01-11T02:48:14.186Z,4.13
2023-01-11T02:50:46.651Z,5.68
2023-01-11T02:53:20.671Z,4.82
2023-01-11T02:55:54.042Z,5.75
2023-01-11T02:58:24.733Z,9.15
2023-01-11T03:00:55.809Z,6.27
2023-01-11T03:03:25.118Z,4.65
2023-01-11T03:05:56.351Z,4.63
2023-01-11T03:08:41.275Z,5.57
2023-01-11T03:11:11.757Z,6.43
2023-01-11T03:13:53.462Z,6.03
2023-01-11T03:16:25.184Z,7.45
2023-01-11T03:19:01.656Z,5.40
2023-01-11T03:21:42.838Z,4.38
2023-01-11T03:24:17.784Z,8.05
2023-01-11T03:26:54.815Z,7.43
2023-01-11T03:29:28.784Z,5.22
2023-01-11T03:32:12.243Z,5.55
2023-01-11T03:34:48.515Z,5.90
2023-01-11T03:37:20.768Z,6.28
2023-01-11T03:39:55.439Z,6.37
2023-01-11T03:42:24.347Z,6.82
2023-01-11T03:44:55.511Z,6.70
2023-01-11T03:47:27.003Z,5.45
2023-01-11T03:49:58.540Z,6.13
2023-01-11T03:52:31.825Z,8.27
2023-01-11T03:55:00.109Z,6.10
2023-01-11T03:57:31.889Z,4.00
2023-01-11T04:00:00.027Z,7.85
2023-01-11T04:02:34.985Z,7.13
2023-01-11T04:05:02.863Z,4.27
2023-01-11T04:07:30.112Z,3.38
2023-01-11T04:09:58.614Z,4.82
2023-01-11T04:12:25.923Z,4.82
2023-01-11T04:14:53.465Z,3.95
2023-01-11T04:17:20.894Z,4.57
2023-01-11T04:19:49.535Z,4.40
2023-01-11T04:22:16.889Z,3.65
2023-01-11T04:24:44.142Z,5.10
2023-01-11T04:27:11.380Z,6.88
2023-01-11T04:29:38.620Z,6.73
2023-01-11T04:32:06.881Z,3.97
2023-01-11T04:34:34.113Z,5.05
2023-01-11T04:37:02.666Z,6.28
2023-01-11T04:39:29.888Z,4.90
2023-01-11T04:42:15.495Z,6.50
2023-01-11T04:44:42.773Z,7.15
2023-01-11T04:47:10.042Z,4.03
2023-01-11T04:49:37.319Z,6.63
2023-01-11T04:52:05.988Z,8.02
2023-01-11T04:54:33.281Z,3.53
2023-01-11T04:57:00.552Z,5.93
2023-01-11T04:59:27.846Z,6.47
2023-01-11T05:01:55.157Z,5.75
2023-01-11T05:04:22.601Z,5.03
2023-01-11T05:06:49.911Z,4.80
2023-01-11T05:09:19.192Z,4.40
2023-01-11T05:11:46.462Z,5.07
2023-01-11T05:14:14.385Z,5.63
2023-01-11T05:16:42.240Z,2.42
2023-01-11T05:19:11.513Z,9.10
2023-01-11T05:21:40.308Z,5.53
2023-01-11T05:24:10.314Z,4.10
2023-01-11T05:26:41.044Z,6.57
2023-01-11T05:29:11.134Z,5.18
2023-01-11T05:31:40.065Z,9.67
2023-01-11T05:34:08.123Z,6.68
2023-01-11T05:36:36.288Z,6.32
2023-01-11T05:39:04.906Z,4.53
2023-01-11T05:41:32.884Z,4.97
2023-01-11T05:44:20.227Z,5.43
2023-01-11T05:46:47.466Z,6.18
2023-01-11T05:49:15.335Z,5.47
2023-01-11T05:51:43.233Z,6.88
2023-01-11T05:54:12.940Z,5.30
2023-01-11T05:56:40.598Z,9.17
2023-01-11T05:59:09.340Z,4.93
2023-01-11T06:01:37.088Z,6.63
2023-01-11T06:04:04.557Z,5.65
2023-01-11T06:06:32.527Z,5.80
2023-01-11T06:08:59.860Z,5.27
2023-01-11T06:11:27.167Z,6.68
2023-01-11T06:13:54.501Z,6.35
2023-01-11T06:16:23.748Z,7.28
2023-01-11T06:18:52.612Z,4.50
2023-01-11T06:21:20.759Z,4.17
2023-01-11T06:23:50.879Z,4.30
2023-01-11T06:26:20.503Z,6.95
2023-01-11T06:28:48.330Z,4.57
2023-01-11T06:31:17.793Z,8.82
2023-01-11T06:33:47.482Z,5.47
2023-01-11T06:36:15.918Z,6.03
2023-01-11T06:38:44.158Z,4.75
2023-01-11T06:41:12.216Z,5.55
2023-01-11T06:43:41.711Z,4.82
2023-01-11T06:46:13.247Z,3.93
2023-01-11T06:48:40.539Z,4.75
2023-01-11T06:51:12.294Z,3.63
2023-01-11T06:53:40.610Z,5.38
2023-01-11T06:56:10.836Z,3.85
2023-01-11T06:58:38.369Z,5.83
2023-01-11T07:01:06.297Z,5.93
2023-01-11T07:03:33.688Z,5.55
2023-01-11T07:06:01.974Z,4.50
2023-01-11T07:08:30.682Z,6.00
2023-01-11T07:10:58.137Z,4.60
2023-01-11T07:13:25.676Z,3.92
2023-01-11T07:15:56.596Z,8.65
2023-01-11T07:18:23.876Z,5.90
2023-01-11T07:20:52.448Z,5.25
2023-01-11T07:23:19.758Z,6.73
2023-01-11T07:25:49.918Z,10.63
2023-01-11T07:28:17.343Z,6.18
2023-01-11T07:30:57.297Z,3.90
2023-01-11T07:33:25.831Z,6.38
2023-01-11T07:35:53.546Z,4.73
2023-01-11T07:38:21.246Z,4.63
2023-01-11T07:40:49.939Z,7.75
2023-01-11T07:43:23.127Z,4.15
2023-01-11T07:45:52.683Z,4.80
2023-01-11T07:48:24.583Z,6.33
2023-01-11T07:50:52.576Z,6.00
2023-01-11T07:53:20.083Z,6.85
2023-01-11T07:55:48.656Z,4.40
2023-01-11T07:58:16.383Z,3.97
2023-01-11T08:00:44.130Z,3.27
2023-01-11T08:03:11.516Z,6.55
2023-01-11T08:05:39.277Z,4.70
2023-01-11T08:08:07.176Z,5.35
2023-01-11T08:10:34.800Z,5.07
2023-01-11T08:13:21.951Z,4.67
2023-01-11T08:15:49.272Z,8.05
2023-01-11T08:18:17.456Z,4.47
2023-01-11T08:20:45.704Z,4.65
2023-01-11T08:23:13.057Z,6.95
2023-01-11T08:25:40.428Z,3.70
2023-01-11T08:28:10.653Z,3.33
2023-01-11T08:30:38.529Z,4.47
2023-01-11T08:33:06.237Z,4.70
2023-01-11T08:35:38.493Z,3.72
2023-01-11T08:38:05.848Z,5.03
2023-01-11T08:40:34.222Z,3.13
2023-01-11T08:43:01.511Z,3.95
2023-01-11T08:45:30.057Z,4.88
2023-01-11T08:47:59.474Z,6.90
2023-01-11T08:50:26.959Z,3.40
2023-01-11T08:52:54.364Z,4.22
2023-01-11T08:55:21.729Z,4.63
2023-01-11T08:57:49.026Z,7.13
2023-01-11T09:00:17.305Z,2.97
2023-01-11T09:02:46.011Z,4.17
2023-01-11T09:05:13.469Z,5.03
2023-01-11T09:07:40.745Z,5.43
2023-01-11T09:10:08.921Z,4.28
2023-01-11T09:12:36.194Z,5.55
2023-01-11T09:15:05.989Z,5.33
2023-01-11T09:17:33.443Z,5.38
2023-01-11T09:20:01.999Z,5.88
2023-01-11T09:22:29.316Z,4.30
2023-01-11T09:24:58.995Z,4.97
2023-01-11T09:27:26.524Z,4.13
2023-01-11T09:29:53.862Z,4.88
2023-01-11T09:32:21.277Z,4.43
2023-01-11T09:34:49.750Z,4.45
2023-01-11T09:37:19.749Z,6.60
2023-01-11T09:39:47.742Z,6.47
2023-01-11T09:42:32.187Z,3.83
2023-01-11T09:45:07.180Z,4.07
2023-01-11T09:47:40.793Z,7.00
2023-01-11T09:50:15.402Z,4.07
2023-01-11T09:52:47.452Z,5.63
2023-01-11T09:55:21.245Z,6.07
2023-01-11T09:57:58.326Z,4.78
2023-01-11T10:00:32.832Z,5.07
2023-01-11T10:03:33.712Z,5.38
2023-01-11T10:06:10.348Z,4.40
2023-01-11T10:18:29.106Z,3.92
2023-01-11T10:18:39.948Z,4.47
2023-01-11T10:20:50.247Z,5.20
2023-01-11T10:23:28.905Z,3.30
2023-01-11T10:26:01.811Z,4.50
2023-01-11T10:28:39.641Z,4.50
2023-01-11T10:31:29.764Z,4.55
2023-01-11T10:34:18.559Z,4.80
2023-01-11T10:37:12.942Z,3.90
2023-01-11T10:40:06.452Z,4.05
2023-01-11T10:42:44.904Z,4.65
2023-01-11T10:45:17.864Z,4.85
2023-01-11T10:47:56.907Z,5.43
2023-01-11T10:50:27.996Z,5.03
2023-01-11T10:53:00.894Z,5.30
2023-01-11T10:55:39.778Z,4.95
2023-01-11T10:58:18.601Z,6.10
2023-01-11T11:00:58.502Z,4.40
2023-01-11T11:03:48.759Z,4.22
2023-01-11T11:06:23.923Z,4.75
2023-01-11T11:08:55.222Z,7.40
2023-01-11T11:11:29.899Z,4.47
2023-01-11T11:14:03.769Z,4.33
2023-01-11T11:16:43.384Z,3.95
2023-01-11T11:19:14.960Z,4.90
2023-01-11T11:21:43.423Z,3.88
2023-01-11T11:24:19.663Z,6.43
2023-01-11T11:26:51.897Z,5.13
2023-01-11T11:29:23.186Z,3.60
2023-01-11T11:31:51.418Z,3.53
2023-01-11T11:34:20.757Z,3.95
2023-01-11T11:36:50.491Z,4.93
2023-01-11T11:39:20.777Z,4.00
2023-01-11T11:41:49.847Z,4.10
2023-01-11T11:44:20.099Z,4.32
2023-01-11T11:46:59.339Z,4.53
2023-01-11T11:49:27.222Z,4.30
2023-01-11T11:51:55.597Z,4.23
2023-01-11T11:54:27.383Z,3.92
2023-01-11T11:56:57.037Z,3.20
2023-01-11T11:59:28.710Z,4.05
2023-01-11T12:02:02.057Z,4.22
2023-01-11T12:04:43.925Z,3.50
2023-01-11T12:07:17.209Z,4.22
2023-01-11T12:09:48.561Z,4.75
2023-01-11T12:12:20.623Z,4.00
2023-01-11T12:15:18.925Z,3.50
2023-01-11T12:17:48.212Z,6.17
2023-01-11T12:20:33.896Z,5.97
2023-01-11T12:23:18.241Z,4.88
2023-01-11T12:26:06.290Z,3.80
2023-01-11T12:28:50.222Z,5.55
2023-01-11T12:31:29.454Z,4.77
2023-01-11T12:34:07.645Z,4.47
2023-01-11T12:36:47.692Z,4.20
2023-01-11T12:39:21.688Z,3.28
2023-01-11T12:42:00.583Z,4.15
2023-01-11T12:44:41.544Z,4.27
2023-01-11T12:47:42.192Z,4.75
2023-01-11T12:50:17.440Z,3.63
2023-01-11T12:53:07.065Z,4.25
2023-01-11T12:55:49.880Z,4.10
2023-01-11T12:58:22.705Z,5.57
2023-01-11T13:01:07.049Z,4.13
2023-01-11T13:04:10.620Z,4.43
2023-01-11T13:06:43.471Z,3.20
2023-01-11T13:09:20.904Z,4.18
2023-01-11T13:11:56.062Z,4.17
2023-01-11T13:14:54.339Z,3.95
2023-01-11T13:17:33.074Z,3.17
2023-01-11T13:20:13.262Z,4.10
2023-01-11T13:22:46.991Z,3.72
2023-01-11T13:25:18.594Z,4.43
2023-01-11T13:27:47.848Z,3.95
2023-01-11T13:30:17.890Z,3.80
2023-01-11T13:32:55.846Z,3.65
2023-01-11T13:35:33.750Z,3.97
2023-01-11T13:38:11.302Z,3.83
2023-01-11T13:40:44.840Z,2.97
2023-01-11T13:43:19.697Z,4.43
2023-01-11T13:45:51.612Z,3.63
2023-01-11T13:48:23.722Z,5.15
2023-01-11T13:50:56.405Z,3.70
2023-01-11T13:53:31.931Z,5.63
2023-01-11T13:56:06.326Z,3.92
2023-01-11T13:58:39.020Z,4.82
2023-01-11T14:01:12.460Z,6.10
2023-01-11T14:03:45.864Z,3.40
2023-01-11T14:06:26.571Z,3.78
2023-01-11T14:09:15.173Z,4.35
2023-01-11T14:11:51.850Z,3.70
2023-01-11T14:14:32.932Z,4.25
2023-01-11T14:17:19.260Z,5.20
2023-01-11T14:19:53.051Z,4.50
2023-01-11T14:22:29.460Z,4.50
2023-01-11T14:25:02.528Z,4.00
2023-01-11T14:27:55.040Z,4.63
2023-01-11T14:30:37.205Z,3.70
2023-01-11T14:33:34.561Z,4.50
2023-01-11T14:36:25.100Z,4.10
2023-01-11T14:39:24.780Z,6.85
2023-01-11T14:42:31.191Z,4.95
2023-01-11T14:45:19.844Z,5.33
2023-01-11T14:48:10.754Z,4.35
2023-01-11T14:50:55.258Z,4.28
2023-01-11T14:53:27.976Z,4.63
2023-01-11T14:55:55.427Z,3.83
2023-01-11T14:58:27.542Z,4.40
2023-01-11T15:01:11.539Z,4.95
2023-01-11T15:03:55.882Z,5.82
2023-01-11T15:06:23.671Z,4.47
2023-01-11T15:08:54.827Z,4.38
2023-01-11T15:11:35.013Z,3.37
2023-01-11T15:14:21.165Z,4.03
2023-01-11T15:17:10.643Z,5.80
2023-01-11T15:19:41.664Z,4.43
2023-01-11T15:22:29.055Z,6.20
2023-01-11T15:24:59.662Z,4.57
2023-01-11T15:27:31.849Z,4.97
2023-01-11T15:30:01.036Z,5.53
2023-01-11T15:32:30.724Z,4.50
2023-01-11T15:35:29.308Z,4.53
2023-01-11T15:38:03.333Z,5.30
2023-01-11T15:40:34.047Z,4.88
2023-01-11T15:43:45.814Z,4.47
2023-01-11T15:46:55.096Z,4.70
2023-01-11T15:50:07.140Z,4.75
2023-01-11T15:53:26.359Z,4.47
2023-01-11T15:56:30.997Z,4.40
2023-01-11T15:59:20.931Z,4.97
2023-01-11T16:02:13.182Z,5.22
2023-01-11T16:04:46.649Z,5.30
2023-01-11T16:07:22.499Z,4.57
2023-01-11T16:10:12.153Z,3.90
2023-01-11T16:12:57.152Z,5.30
2023-01-11T16:15:38.511Z,4.55
2023-01-11T16:18:13.567Z,5.50
2023-01-11T16:20:43.832Z,6.23
2023-01-11T16:23:19.855Z,7.22
2023-01-11T16:25:52.631Z,4.30
2023-01-11T16:28:20.120Z,5.20
2023-01-11T16:30:54.548Z,4.68
2023-01-11T16:33:26.201Z,5.50
2023-01-11T16:36:04.579Z,6.43
2023-01-11T16:38:39.284Z,6.03
2023-01-11T16:41:08.781Z,5.22
2023-01-11T16:43:48.203Z,6.78
2023-01-11T16:46:52.993Z,7.07
2023-01-11T16:49:21.550Z,6.55
2023-01-11T16:51:49.486Z,6.63
2023-01-11T16:54:24.327Z,7.03
2023-01-11T16:56:51.938Z,6.30
2023-01-11T16:59:24.494Z,6.13
2023-01-11T17:01:53.890Z,5.25
2023-01-11T17:04:31.104Z,6.07
2023-01-11T17:07:12.815Z,4.45
2023-01-11T17:09:40.877Z,6.25
2023-01-11T17:12:15.881Z,5.50
2023-01-11T17:14:58.358Z,8.07
2023-01-11T17:17:27.776Z,5.03
2023-01-11T17:19:59.184Z,5.32
2023-01-11T17:22:29.291Z,5.05
2023-01-11T17:24:58.683Z,6.83
2023-01-11T17:27:28.904Z,7.53
2023-01-11T17:29:58.036Z,5.95
2023-01-11T17:32:33.346Z,5.53
2023-01-11T17:35:05.021Z,6.97
2023-01-11T17:37:33.123Z,6.20
2023-01-11T17:40:00.899Z,8.07
2023-01-11T17:42:47.064Z,7.63
2023-01-11T17:45:21.097Z,7.18
2023-01-11T17:47:50.906Z,9.05
2023-01-11T17:50:23.880Z,6.67
2023-01-11T17:52:55.393Z,6.63
2023-01-11T17:55:24.599Z,6.57
2023-01-11T17:58:11.067Z,7.20
2023-01-11T18:00:38.621Z,7.25
2023-01-11T18:03:11.045Z,10.47
2023-01-11T18:05:39.817Z,8.13
2023-01-11T18:08:18.775Z,6.80
2023-01-11T18:10:52.813Z,8.32
2023-01-11T18:13:27.173Z,8.20
2023-01-11T18:15:54.863Z,7.57
2023-01-11T18:18:41.787Z,9.70
2023-01-11T18:21:50.284Z,6.85
2023-01-11T18:24:43.124Z,7.50
2023-01-11T18:27:34.774Z,7.50
2023-01-11T18:30:06.161Z,9.23
2023-01-11T18:32:37.588Z,8.07
2023-01-11T18:35:12.610Z,7.97
2023-01-11T18:37:41.438Z,8.25
2023-01-11T18:40:12.303Z,7.60
2023-01-11T18:42:39.857Z,8.67
2023-01-11T18:45:09.952Z,8.18
2023-01-11T18:47:37.258Z,10.43
2023-01-11T18:50:05.847Z,7.97
2023-01-11T18:52:33.110Z,9.50
2023-01-11T18:55:01.906Z,8.20
2023-01-11T18:57:29.403Z,7.97
2023-01-11T18:59:56.748Z,7.53
2023-01-11T19:02:26.812Z,10.10
2023-01-11T19:04:56.060Z,8.95
2023-01-11T19:07:23.746Z,9.17
2023-01-11T19:09:51.081Z,9.15
2023-01-11T19:12:19.811Z,9.52
2023-01-11T19:14:47.056Z,9.68
2023-01-11T19:17:14.599Z,8.48
2023-01-11T19:19:42.058Z,9.50
2023-01-11T19:22:10.871Z,9.57
2023-01-11T19:24:39.548Z,9.20
2023-01-11T19:27:06.996Z,11.13
2023-01-11T19:29:35.621Z,9.55
2023-01-11T19:32:02.905Z,9.60
2023-01-11T19:34:32.121Z,10.45
2023-01-11T19:36:59.585Z,9.38
2023-01-11T19:39:27.394Z,9.60
2023-01-11T19:41:54.752Z,10.48
2023-01-11T19:44:23.372Z,9.03
2023-01-11T19:47:00.317Z,8.80
2023-01-11T19:49:36.899Z,9.63
2023-01-11T19:52:04.755Z,9.77
2023-01-11T19:54:32.067Z,11.38
2023-01-11T19:56:59.294Z,9.37
2023-01-11T19:59:26.544Z,7.30
2023-01-11T20:01:55.110Z,8.93
2023-01-11T20:04:22.360Z,8.13
2023-01-11T20:06:53.821Z,9.38
2023-01-11T20:09:22.219Z,7.97
2023-01-11T20:11:49.782Z,11.32
2023-01-11T20:14:17.240Z,10.60
2023-01-11T20:16:44.507Z,11.38
2023-01-11T20:19:13.307Z,10.05
2023-01-11T20:21:40.604Z,9.87
2023-01-11T20:24:10.044Z,10.35
2023-01-11T20:26:37.343Z,9.93
2023-01-11T20:29:06.293Z,9.35
2023-01-11T20:31:35.409Z,7.97
2023-01-11T20:34:11.352Z,12.23
2023-01-11T20:36:40.300Z,10.02
2023-01-11T20:39:08.303Z,14.48
2023-01-11T20:41:48.579Z,10.90
2023-01-11T20:44:18.571Z,10.68
2023-01-11T20:46:47.990Z,7.67
2023-01-11T20:49:16.437Z,11.82
2023-01-11T20:51:46.543Z,7.93
2023-01-11T20:54:14.910Z,11.23
2023-01-11T20:56:42.729Z,9.80
2023-01-11T21:01:37.447Z,8.18
2023-01-11T21:04:06.890Z,8.82
2023-01-11T21:06:36.783Z,8.05
2023-01-11T21:09:06.651Z,12.70
2023-01-11T21:11:34.727Z,12.83
2023-01-11T21:14:04.184Z,8.13
2023-01-11T21:16:31.912Z,8.57
2023-01-11T21:19:01.054Z,6.97
2023-01-11T21:21:30.105Z,9.20
2023-01-11T21:23:58.824Z,8.63
2023-01-11T21:26:29.018Z,10.63
2023-01-11T21:28:59.455Z,9.25
2023-01-11T21:31:28.437Z,9.63
2023-01-11T21:33:56.231Z,10.60
2023-01-11T21:36:27.770Z,11.43
2023-01-11T21:38:56.718Z,11.75
2023-01-11T21:41:43.911Z,11.10
2023-01-11T21:44:13.535Z,9.32
2023-01-11T21:46:41.792Z,10.60
2023-01-11T21:49:10.949Z,8.97
2023-01-11T21:51:38.476Z,8.80
2023-01-11T21:54:07.798Z,11.90
2023-01-11T21:56:35.385Z,9.77
2023-01-11T21:59:02.725Z,12.60
2023-01-11T22:01:31.390Z,12.87
2023-01-11T22:03:58.843Z,10.50
2023-01-11T22:06:26.099Z,9.32
2023-01-11T22:08:53.569Z,9.88
2023-01-11T22:11:20.907Z,11.05
2023-01-11T22:13:48.206Z,12.50
2023-01-11T22:16:17.724Z,11.55
2023-01-11T22:18:46.424Z,10.68
2023-01-11T22:21:15.845Z,11.60
2023-01-11T22:23:43.292Z,10.65
2023-01-11T22:26:12.420Z,11.47
2023-01-11T22:28:58.723Z,12.23
2023-01-11T22:31:27.796Z,12.32
2023-01-11T22:33:57.441Z,11.00
2023-01-11T22:36:26.320Z,9.48
2023-01-11T22:38:54.514Z,10.77
2023-01-11T22:41:23.426Z,8.82
2023-01-11T22:43:51.167Z,10.10
2023-01-11T22:46:20.115Z,13.32
2023-01-11T22:48:48.564Z,9.70
2023-01-11T22:51:19.284Z,10.63
2023-01-11T22:53:48.590Z,10.75
2023-01-11T22:56:18.953Z,10.32
2023-01-11T22:58:46.645Z,12.27
2023-01-11T23:01:15.836Z,12.57
2023-01-11T23:03:43.794Z,10.47
2023-01-11T23:06:11.943Z,9.80
2023-01-11T23:08:42.377Z,10.23
2023-01-11T23:11:11.618Z,9.85
2023-01-11T23:13:55.105Z,11.75
2023-01-11T23:16:22.817Z,12.47
2023-01-11T23:18:50.417Z,10.88
2023-01-11T23:21:17.748Z,11.57
2023-01-11T23:23:46.753Z,11.35
2023-01-11T23:26:17.794Z,13.45
2023-01-11T23:28:45.872Z,14.30
2023-01-11T23:31:18.510Z,11.93
2023-01-11T23:33:47.320Z,12.60
2023-01-11T23:36:16.468Z,12.25
2023-01-11T23:38:43.982Z,10.98
2023-01-11T23:41:33.685Z,10.27
2023-01-11T23:44:01.291Z,10.00
2023-01-11T23:46:47.352Z,18.33
2023-01-11T23:49:14.654Z,8.15
2023-01-11T23:51:42.642Z,9.55
2023-01-11T23:54:10.474Z,13.37
2023-01-11T23:56:39.143Z,11.25
2023-01-11T23:59:06.951Z,10.05
